sensor_id;sensor_type;location;lat;lon;timestamp;temperature;humidity
8095;DHT22;4090;49.270;8.696;2023-04-24T00:00:57;15.50;99.90
8095;DHT22;4090;49.270;8.696;2023-04-24T00:03:39;15.50;99.90
8095;DHT22;4090;49.270;8.696;2023-04-24T00:06:21;15.50;99.90
8095;DHT22;4090;49.270;8.696;2023-04-24T00:09:04;15.50;99.90
8095;DHT22;4090;49.270;8.696;2023-04-24T00:11:45;15.40;99.90
8095;DHT22;4090;49.270;8.696;2023-04-24T00:14:29;15.40;99.90
8095;DHT22;4090;49.270;8.696;2023-04-24T00:17:10;15.30;99.90
8095;DHT22;4090;49.270;8.696;2023-04-24T00:19:52;15.40;99.90
8095;DHT22;4090;49.270;8.696;2023-04-24T00:22:38;15.40;99.90
8095;DHT22;4090;49.270;8.696;2023-04-24T00:25:20;15.50;99.90
8095;DHT22;4090;49.270;8.696;2023-04-24T00:28:02;15.60;99.90
8095;DHT22;4090;49.270;8.696;2023-04-24T00:30:45;15.50;99.90
8095;DHT22;4090;49.270;8.696;2023-04-24T00:33:26;15.70;99.90
8095;DHT22;4090;49.270;8.696;2023-04-24T00:36:08;15.80;99.90
8095;DHT22;4090;49.270;8.696;2023-04-24T00:38:50;15.60;99.90
8095;DHT22;4090;49.270;8.696;2023-04-24T00:41:32;15.50;99.90
8095;DHT22;4090;49.270;8.696;2023-04-24T00:44:13;15.70;99.90
8095;DHT22;4090;49.270;8.696;2023-04-24T00:46:56;15.70;99.90
8095;DHT22;4090;49.270;8.696;2023-04-24T00:49:39;15.70;99.90
8095;DHT22;4090;49.270;8.696;2023-04-24T00:52:21;15.70;99.90
8095;DHT22;4090;49.270;8.696;2023-04-24T00:55:05;15.70;99.90
8095;DHT22;4090;49.270;8.696;2023-04-24T00:57:47;15.60;99.90
8095;DHT22;4090;49.270;8.696;2023-04-24T01:00:29;15.70;99.90
8095;DHT22;4090;49.270;8.696;2023-04-24T01:03:13;15.60;99.90
8095;DHT22;4090;49.270;8.696;2023-04-24T01:05:55;15.70;99.90
8095;DHT22;4090;49.270;8.696;2023-04-24T01:08:37;15.70;99.90
8095;DHT22;4090;49.270;8.696;2023-04-24T01:11:20;15.60;99.90
8095;DHT22;4090;49.270;8.696;2023-04-24T01:14:02;15.40;99.90
8095;DHT22;4090;49.270;8.696;2023-04-24T01:16:44;15.60;99.90
8095;DHT22;4090;49.270;8.696;2023-04-24T01:19:27;15.60;99.90
8095;DHT22;4090;49.270;8.696;2023-04-24T01:22:11;15.50;99.90
8095;DHT22;4090;49.270;8.696;2023-04-24T01:24:53;15.50;99.90
8095;DHT22;4090;49.270;8.696;2023-04-24T01:27:34;15.50;99.90
8095;DHT22;4090;49.270;8.696;2023-04-24T01:30:16;15.40;99.90
8095;DHT22;4090;49.270;8.696;2023-04-24T01:32:58;15.40;99.90
8095;DHT22;4090;49.270;8.696;2023-04-24T01:35:40;15.30;99.90
8095;DHT22;4090;49.270;8.696;2023-04-24T01:38:23;15.40;99.90
8095;DHT22;4090;49.270;8.696;2023-04-24T01:41:05;15.50;99.90
8095;DHT22;4090;49.270;8.696;2023-04-24T01:43:47;15.70;99.90
8095;DHT22;4090;49.270;8.696;2023-04-24T01:46:29;15.70;99.90
8095;DHT22;4090;49.270;8.696;2023-04-24T01:49:12;15.80;99.90
8095;DHT22;4090;49.270;8.696;2023-04-24T01:51:53;15.80;99.90
8095;DHT22;4090;49.270;8.696;2023-04-24T01:54:36;15.80;99.90
8095;DHT22;4090;49.270;8.696;2023-04-24T01:57:18;15.90;99.90
8095;DHT22;4090;49.270;8.696;2023-04-24T02:00:00;15.90;99.90
8095;DHT22;4090;49.270;8.696;2023-04-24T02:02:43;16.00;99.90
8095;DHT22;4090;49.270;8.696;2023-04-24T02:05:25;15.90;99.90
8095;DHT22;4090;49.270;8.696;2023-04-24T02:08:07;15.80;99.90
8095;DHT22;4090;49.270;8.696;2023-04-24T02:10:53;15.90;99.90
8095;DHT22;4090;49.270;8.696;2023-04-24T02:13:38;15.90;99.90
8095;DHT22;4090;49.270;8.696;2023-04-24T02:16:20;15.80;99.90
8095;DHT22;4090;49.270;8.696;2023-04-24T02:19:02;15.70;99.90
8095;DHT22;4090;49.270;8.696;2023-04-24T02:21:44;15.80;99.90
8095;DHT22;4090;49.270;8.696;2023-04-24T02:24:25;15.90;99.90
8095;DHT22;4090;49.270;8.696;2023-04-24T02:27:08;16.00;99.90
8095;DHT22;4090;49.270;8.696;2023-04-24T02:29:50;16.10;99.90
8095;DHT22;4090;49.270;8.696;2023-04-24T02:32:32;16.10;99.90
8095;DHT22;4090;49.270;8.696;2023-04-24T02:35:14;16.10;99.90
8095;DHT22;4090;49.270;8.696;2023-04-24T02:37:56;16.00;99.90
8095;DHT22;4090;49.270;8.696;2023-04-24T02:40:38;15.80;99.90
8095;DHT22;4090;49.270;8.696;2023-04-24T02:43:21;15.60;99.90
8095;DHT22;4090;49.270;8.696;2023-04-24T02:46:02;15.50;99.90
8095;DHT22;4090;49.270;8.696;2023-04-24T02:48:45;15.40;99.90
8095;DHT22;4090;49.270;8.696;2023-04-24T02:51:26;15.50;99.90
8095;DHT22;4090;49.270;8.696;2023-04-24T02:54:08;15.40;99.90
8095;DHT22;4090;49.270;8.696;2023-04-24T02:56:50;15.30;99.90
8095;DHT22;4090;49.270;8.696;2023-04-24T02:59:33;15.10;99.90
8095;DHT22;4090;49.270;8.696;2023-04-24T03:02:15;15.20;99.90
8095;DHT22;4090;49.270;8.696;2023-04-24T03:04:57;15.20;99.90
8095;DHT22;4090;49.270;8.696;2023-04-24T03:07:39;15.30;99.90
8095;DHT22;4090;49.270;8.696;2023-04-24T03:10:21;15.20;99.90
8095;DHT22;4090;49.270;8.696;2023-04-24T03:13:03;15.20;99.90
8095;DHT22;4090;49.270;8.696;2023-04-24T03:15:46;15.20;99.90
8095;DHT22;4090;49.270;8.696;2023-04-24T03:18:28;15.30;99.90
8095;DHT22;4090;49.270;8.696;2023-04-24T03:21:11;15.50;99.90
8095;DHT22;4090;49.270;8.696;2023-04-24T03:23:53;15.40;99.90
8095;DHT22;4090;49.270;8.696;2023-04-24T03:26:35;15.50;99.90
8095;DHT22;4090;49.270;8.696;2023-04-24T03:29:35;15.60;99.90
8095;DHT22;4090;49.270;8.696;2023-04-24T03:32:18;15.30;99.90
8095;DHT22;4090;49.270;8.696;2023-04-24T03:35:01;15.20;99.90
8095;DHT22;4090;49.270;8.696;2023-04-24T03:37:43;15.20;99.90
8095;DHT22;4090;49.270;8.696;2023-04-24T03:40:45;15.20;99.90
8095;DHT22;4090;49.270;8.696;2023-04-24T03:43:48;15.10;99.90
8095;DHT22;4090;49.270;8.696;2023-04-24T03:46:30;15.10;99.90
8095;DHT22;4090;49.270;8.696;2023-04-24T03:49:17;15.20;99.90
8095;DHT22;4090;49.270;8.696;2023-04-24T03:52:01;15.20;99.90
8095;DHT22;4090;49.270;8.696;2023-04-24T03:54:43;15.30;99.90
8095;DHT22;4090;49.270;8.696;2023-04-24T03:57:25;15.20;99.90
8095;DHT22;4090;49.270;8.696;2023-04-24T04:00:19;15.40;99.90
8095;DHT22;4090;49.270;8.696;2023-04-24T04:03:07;15.30;99.90
8095;DHT22;4090;49.270;8.696;2023-04-24T04:05:50;15.10;99.90
8095;DHT22;4090;49.270;8.696;2023-04-24T04:08:32;15.00;99.90
8095;DHT22;4090;49.270;8.696;2023-04-24T04:11:14;15.20;99.90
8095;DHT22;4090;49.270;8.696;2023-04-24T04:13:55;15.10;99.90
8095;DHT22;4090;49.270;8.696;2023-04-24T04:16:39;14.90;99.90
8095;DHT22;4090;49.270;8.696;2023-04-24T04:19:21;15.00;99.90
8095;DHT22;4090;49.270;8.696;2023-04-24T04:22:05;14.90;99.90
8095;DHT22;4090;49.270;8.696;2023-04-24T04:24:55;14.70;99.90
8095;DHT22;4090;49.270;8.696;2023-04-24T04:27:38;14.70;99.90
8095;DHT22;4090;49.270;8.696;2023-04-24T04:30:25;14.70;99.90
8095;DHT22;4090;49.270;8.696;2023-04-24T04:33:12;14.60;99.90
8095;DHT22;4090;49.270;8.696;2023-04-24T04:35:55;14.70;99.90
8095;DHT22;4090;49.270;8.696;2023-04-24T04:38:41;14.70;99.90
8095;DHT22;4090;49.270;8.696;2023-04-24T04:41:34;14.50;99.90
8095;DHT22;4090;49.270;8.696;2023-04-24T04:44:16;14.40;99.90
8095;DHT22;4090;49.270;8.696;2023-04-24T04:46:58;14.50;99.90
8095;DHT22;4090;49.270;8.696;2023-04-24T04:49:43;14.50;99.90
8095;DHT22;4090;49.270;8.696;2023-04-24T04:52:38;14.50;99.90
8095;DHT22;4090;49.270;8.696;2023-04-24T04:55:32;14.50;99.90
8095;DHT22;4090;49.270;8.696;2023-04-24T04:58:21;14.40;99.90
8095;DHT22;4090;49.270;8.696;2023-04-24T05:01:08;14.40;99.90
8095;DHT22;4090;49.270;8.696;2023-04-24T05:03:56;14.40;99.90
8095;DHT22;4090;49.270;8.696;2023-04-24T05:06:38;14.40;99.90
8095;DHT22;4090;49.270;8.696;2023-04-24T05:09:20;14.40;99.90
8095;DHT22;4090;49.270;8.696;2023-04-24T05:12:08;14.40;99.90
8095;DHT22;4090;49.270;8.696;2023-04-24T05:14:57;14.30;99.90
8095;DHT22;4090;49.270;8.696;2023-04-24T05:17:39;14.20;99.90
8095;DHT22;4090;49.270;8.696;2023-04-24T05:20:22;14.30;99.90
8095;DHT22;4090;49.270;8.696;2023-04-24T05:23:03;14.30;99.90
8095;DHT22;4090;49.270;8.696;2023-04-24T05:25:52;14.40;99.90
8095;DHT22;4090;49.270;8.696;2023-04-24T05:28:36;14.30;99.90
8095;DHT22;4090;49.270;8.696;2023-04-24T05:31:22;14.30;99.90
8095;DHT22;4090;49.270;8.696;2023-04-24T05:34:04;14.40;99.90
8095;DHT22;4090;49.270;8.696;2023-04-24T05:36:46;14.40;99.90
8095;DHT22;4090;49.270;8.696;2023-04-24T05:39:29;14.50;99.90
8095;DHT22;4090;49.270;8.696;2023-04-24T05:42:10;14.50;99.90
8095;DHT22;4090;49.270;8.696;2023-04-24T05:44:53;14.30;99.90
8095;DHT22;4090;49.270;8.696;2023-04-24T05:47:35;14.50;99.90
8095;DHT22;4090;49.270;8.696;2023-04-24T05:50:17;14.20;99.90
8095;DHT22;4090;49.270;8.696;2023-04-24T05:52:59;14.40;99.90
8095;DHT22;4090;49.270;8.696;2023-04-24T05:55:47;14.20;99.90
8095;DHT22;4090;49.270;8.696;2023-04-24T05:58:29;14.20;99.90
8095;DHT22;4090;49.270;8.696;2023-04-24T06:01:12;14.40;99.90
8095;DHT22;4090;49.270;8.696;2023-04-24T06:03:55;14.40;99.90
8095;DHT22;4090;49.270;8.696;2023-04-24T06:06:39;14.30;99.90
8095;DHT22;4090;49.270;8.696;2023-04-24T06:09:21;14.20;99.90
8095;DHT22;4090;49.270;8.696;2023-04-24T06:12:03;14.00;99.90
8095;DHT22;4090;49.270;8.696;2023-04-24T06:14:59;14.00;99.90
8095;DHT22;4090;49.270;8.696;2023-04-24T06:17:58;13.90;99.90
8095;DHT22;4090;49.270;8.696;2023-04-24T06:20:40;14.00;99.90
8095;DHT22;4090;49.270;8.696;2023-04-24T06:23:23;13.90;99.90
8095;DHT22;4090;49.270;8.696;2023-04-24T06:26:05;13.90;99.90
8095;DHT22;4090;49.270;8.696;2023-04-24T06:28:47;13.80;99.90
8095;DHT22;4090;49.270;8.696;2023-04-24T06:31:29;13.90;99.90
8095;DHT22;4090;49.270;8.696;2023-04-24T06:34:16;13.80;99.90
8095;DHT22;4090;49.270;8.696;2023-04-24T06:36:58;14.00;99.90
8095;DHT22;4090;49.270;8.696;2023-04-24T06:39:40;14.10;99.90
8095;DHT22;4090;49.270;8.696;2023-04-24T06:42:22;14.10;99.90
8095;DHT22;4090;49.270;8.696;2023-04-24T06:45:05;14.30;99.90
8095;DHT22;4090;49.270;8.696;2023-04-24T06:47:47;14.30;99.90
8095;DHT22;4090;49.270;8.696;2023-04-24T06:50:30;14.30;99.90
8095;DHT22;4090;49.270;8.696;2023-04-24T06:53:12;14.40;99.90
8095;DHT22;4090;49.270;8.696;2023-04-24T06:55:54;14.30;99.90
8095;DHT22;4090;49.270;8.696;2023-04-24T06:58:37;14.00;99.90
8095;DHT22;4090;49.270;8.696;2023-04-24T07:01:18;14.00;99.90
8095;DHT22;4090;49.270;8.696;2023-04-24T07:04:00;13.90;99.90
8095;DHT22;4090;49.270;8.696;2023-04-24T07:06:43;14.00;99.90
8095;DHT22;4090;49.270;8.696;2023-04-24T07:09:26;14.20;99.90
8095;DHT22;4090;49.270;8.696;2023-04-24T07:12:08;14.10;99.90
8095;DHT22;4090;49.270;8.696;2023-04-24T07:14:50;14.20;99.90
8095;DHT22;4090;49.270;8.696;2023-04-24T07:17:32;14.00;99.90
8095;DHT22;4090;49.270;8.696;2023-04-24T07:20:14;14.00;99.90
8095;DHT22;4090;49.270;8.696;2023-04-24T07:22:57;14.00;99.90
8095;DHT22;4090;49.270;8.696;2023-04-24T07:25:39;13.90;99.90
8095;DHT22;4090;49.270;8.696;2023-04-24T07:28:21;14.00;99.90
8095;DHT22;4090;49.270;8.696;2023-04-24T07:31:03;13.90;99.90
8095;DHT22;4090;49.270;8.696;2023-04-24T07:33:44;13.80;99.90
8095;DHT22;4090;49.270;8.696;2023-04-24T07:36:26;13.90;99.90
8095;DHT22;4090;49.270;8.696;2023-04-24T07:39:09;13.90;99.90
8095;DHT22;4090;49.270;8.696;2023-04-24T07:41:51;13.90;99.90
8095;DHT22;4090;49.270;8.696;2023-04-24T07:44:33;13.90;99.90
8095;DHT22;4090;49.270;8.696;2023-04-24T07:47:16;13.80;99.90
8095;DHT22;4090;49.270;8.696;2023-04-24T07:49:58;13.80;99.90
8095;DHT22;4090;49.270;8.696;2023-04-24T07:52:40;13.80;99.90
8095;DHT22;4090;49.270;8.696;2023-04-24T07:55:23;13.70;99.90
8095;DHT22;4090;49.270;8.696;2023-04-24T07:58:05;13.50;99.90
8095;DHT22;4090;49.270;8.696;2023-04-24T08:00:47;13.50;99.90
8095;DHT22;4090;49.270;8.696;2023-04-24T08:03:28;13.50;99.90
8095;DHT22;4090;49.270;8.696;2023-04-24T08:06:10;13.60;99.90
8095;DHT22;4090;49.270;8.696;2023-04-24T08:08:52;13.60;99.90
8095;DHT22;4090;49.270;8.696;2023-04-24T08:11:35;13.60;99.90
8095;DHT22;4090;49.270;8.696;2023-04-24T08:14:17;13.60;99.90
8095;DHT22;4090;49.270;8.696;2023-04-24T08:16:58;13.70;99.90
8095;DHT22;4090;49.270;8.696;2023-04-24T08:19:41;13.60;99.90
8095;DHT22;4090;49.270;8.696;2023-04-24T08:22:28;13.50;99.90
8095;DHT22;4090;49.270;8.696;2023-04-24T08:25:10;13.50;99.90
8095;DHT22;4090;49.270;8.696;2023-04-24T08:27:53;13.30;99.90
8095;DHT22;4090;49.270;8.696;2023-04-24T08:30:35;13.40;99.90
8095;DHT22;4090;49.270;8.696;2023-04-24T08:33:16;13.40;99.90
8095;DHT22;4090;49.270;8.696;2023-04-24T08:35:58;13.40;99.90
8095;DHT22;4090;49.270;8.696;2023-04-24T08:38:41;13.50;99.90
8095;DHT22;4090;49.270;8.696;2023-04-24T08:41:23;13.50;99.90
8095;DHT22;4090;49.270;8.696;2023-04-24T08:44:07;13.70;99.90
8095;DHT22;4090;49.270;8.696;2023-04-24T08:46:50;13.70;99.90
8095;DHT22;4090;49.270;8.696;2023-04-24T08:49:32;13.70;99.90
8095;DHT22;4090;49.270;8.696;2023-04-24T08:52:14;13.90;99.90
8095;DHT22;4090;49.270;8.696;2023-04-24T08:54:56;14.20;99.90
8095;DHT22;4090;49.270;8.696;2023-04-24T08:57:39;14.50;99.90
8095;DHT22;4090;49.270;8.696;2023-04-24T09:00:22;14.60;99.90
8095;DHT22;4090;49.270;8.696;2023-04-24T09:03:04;14.50;99.90
8095;DHT22;4090;49.270;8.696;2023-04-24T09:05:46;14.40;99.90
8095;DHT22;4090;49.270;8.696;2023-04-24T09:08:30;14.40;99.90
8095;DHT22;4090;49.270;8.696;2023-04-24T09:11:12;14.50;99.90
8095;DHT22;4090;49.270;8.696;2023-04-24T09:13:54;14.50;99.90
8095;DHT22;4090;49.270;8.696;2023-04-24T09:16:37;14.40;99.90
8095;DHT22;4090;49.270;8.696;2023-04-24T09:19:19;14.50;99.90
8095;DHT22;4090;49.270;8.696;2023-04-24T09:22:04;14.50;99.90
8095;DHT22;4090;49.270;8.696;2023-04-24T09:24:46;14.50;99.90
8095;DHT22;4090;49.270;8.696;2023-04-24T09:27:29;14.60;99.90
8095;DHT22;4090;49.270;8.696;2023-04-24T09:30:11;14.40;99.90
8095;DHT22;4090;49.270;8.696;2023-04-24T09:33:04;14.40;99.90
8095;DHT22;4090;49.270;8.696;2023-04-24T09:35:51;14.40;99.90
8095;DHT22;4090;49.270;8.696;2023-04-24T09:38:34;14.30;99.90
8095;DHT22;4090;49.270;8.696;2023-04-24T09:41:16;14.30;99.90
8095;DHT22;4090;49.270;8.696;2023-04-24T09:43:58;14.20;99.90
8095;DHT22;4090;49.270;8.696;2023-04-24T09:46:43;14.20;99.90
8095;DHT22;4090;49.270;8.696;2023-04-24T09:49:27;14.20;99.90
8095;DHT22;4090;49.270;8.696;2023-04-24T09:52:09;14.20;99.90
8095;DHT22;4090;49.270;8.696;2023-04-24T09:54:52;14.30;99.90
8095;DHT22;4090;49.270;8.696;2023-04-24T09:57:34;14.20;99.90
8095;DHT22;4090;49.270;8.696;2023-04-24T10:00:21;14.20;99.90
8095;DHT22;4090;49.270;8.696;2023-04-24T10:03:03;13.90;99.90
8095;DHT22;4090;49.270;8.696;2023-04-24T10:05:47;13.80;99.90
8095;DHT22;4090;49.270;8.696;2023-04-24T10:08:32;13.80;99.90
8095;DHT22;4090;49.270;8.696;2023-04-24T10:11:14;13.90;99.90
8095;DHT22;4090;49.270;8.696;2023-04-24T10:13:57;14.10;99.90
8095;DHT22;4090;49.270;8.696;2023-04-24T10:16:39;14.00;99.90
8095;DHT22;4090;49.270;8.696;2023-04-24T10:19:21;14.20;99.90
8095;DHT22;4090;49.270;8.696;2023-04-24T10:22:07;14.40;99.90
8095;DHT22;4090;49.270;8.696;2023-04-24T10:24:49;14.30;99.90
8095;DHT22;4090;49.270;8.696;2023-04-24T10:27:31;14.40;99.90
8095;DHT22;4090;49.270;8.696;2023-04-24T10:30:13;14.50;99.90
8095;DHT22;4090;49.270;8.696;2023-04-24T10:32:55;14.40;99.90
8095;DHT22;4090;49.270;8.696;2023-04-24T10:35:37;14.30;99.90
8095;DHT22;4090;49.270;8.696;2023-04-24T10:38:23;14.20;99.90
8095;DHT22;4090;49.270;8.696;2023-04-24T10:41:09;14.10;99.90
8095;DHT22;4090;49.270;8.696;2023-04-24T10:44:05;14.30;99.90
8095;DHT22;4090;49.270;8.696;2023-04-24T10:46:49;14.30;99.90
8095;DHT22;4090;49.270;8.696;2023-04-24T10:49:34;14.00;99.90
8095;DHT22;4090;49.270;8.696;2023-04-24T10:52:16;14.00;99.90
8095;DHT22;4090;49.270;8.696;2023-04-24T10:54:59;14.10;99.90
8095;DHT22;4090;49.270;8.696;2023-04-24T11:00:40;14.20;99.90
8095;DHT22;4090;49.270;8.696;2023-04-24T11:03:22;14.20;99.90
8095;DHT22;4090;49.270;8.696;2023-04-24T11:06:05;14.20;99.90
8095;DHT22;4090;49.270;8.696;2023-04-24T11:08:47;14.20;99.90
8095;DHT22;4090;49.270;8.696;2023-04-24T11:11:30;14.30;99.90
8095;DHT22;4090;49.270;8.696;2023-04-24T11:14:14;14.20;99.90
8095;DHT22;4090;49.270;8.696;2023-04-24T11:16:55;14.40;99.90
8095;DHT22;4090;49.270;8.696;2023-04-24T11:19:38;14.70;99.90
8095;DHT22;4090;49.270;8.696;2023-04-24T11:22:20;14.70;99.90
8095;DHT22;4090;49.270;8.696;2023-04-24T11:25:04;14.70;99.90
8095;DHT22;4090;49.270;8.696;2023-04-24T11:27:48;14.80;99.90
8095;DHT22;4090;49.270;8.696;2023-04-24T11:30:31;14.90;99.90
8095;DHT22;4090;49.270;8.696;2023-04-24T11:33:13;15.20;99.90
8095;DHT22;4090;49.270;8.696;2023-04-24T11:36:01;15.10;99.90
8095;DHT22;4090;49.270;8.696;2023-04-24T11:38:43;15.20;99.90
8095;DHT22;4090;49.270;8.696;2023-04-24T11:41:25;15.30;99.90
8095;DHT22;4090;49.270;8.696;2023-04-24T11:44:09;15.10;99.90
8095;DHT22;4090;49.270;8.696;2023-04-24T11:46:51;15.10;99.90
8095;DHT22;4090;49.270;8.696;2023-04-24T11:49:33;14.70;99.90
8095;DHT22;4090;49.270;8.696;2023-04-24T11:52:15;14.50;99.90
8095;DHT22;4090;49.270;8.696;2023-04-24T11:54:57;14.50;99.90
8095;DHT22;4090;49.270;8.696;2023-04-24T11:57:39;14.50;99.90
8095;DHT22;4090;49.270;8.696;2023-04-24T12:00:26;14.70;99.90
8095;DHT22;4090;49.270;8.696;2023-04-24T12:03:09;14.70;99.90
8095;DHT22;4090;49.270;8.696;2023-04-24T12:05:51;14.80;99.90
8095;DHT22;4090;49.270;8.696;2023-04-24T12:08:33;14.80;99.90
8095;DHT22;4090;49.270;8.696;2023-04-24T12:11:16;14.90;99.90
8095;DHT22;4090;49.270;8.696;2023-04-24T12:14:09;14.80;99.90
8095;DHT22;4090;49.270;8.696;2023-04-24T12:16:52;14.70;99.90
8095;DHT22;4090;49.270;8.696;2023-04-24T12:19:34;14.80;99.90
8095;DHT22;4090;49.270;8.696;2023-04-24T12:22:16;15.00;99.90
8095;DHT22;4090;49.270;8.696;2023-04-24T12:24:58;15.00;99.90
8095;DHT22;4090;49.270;8.696;2023-04-24T12:27:41;15.00;99.90
8095;DHT22;4090;49.270;8.696;2023-04-24T12:30:26;15.00;99.90
8095;DHT22;4090;49.270;8.696;2023-04-24T12:33:10;14.90;99.90
8095;DHT22;4090;49.270;8.696;2023-04-24T12:35:52;14.90;99.90
8095;DHT22;4090;49.270;8.696;2023-04-24T12:38:34;15.00;99.90
8095;DHT22;4090;49.270;8.696;2023-04-24T12:41:21;14.70;99.90
8095;DHT22;4090;49.270;8.696;2023-04-24T12:44:02;14.70;99.90
8095;DHT22;4090;49.270;8.696;2023-04-24T12:46:44;14.70;99.90
8095;DHT22;4090;49.270;8.696;2023-04-24T12:49:27;14.90;99.90
8095;DHT22;4090;49.270;8.696;2023-04-24T12:52:09;14.90;99.90
8095;DHT22;4090;49.270;8.696;2023-04-24T12:54:52;14.90;99.90
8095;DHT22;4090;49.270;8.696;2023-04-24T12:57:34;15.00;99.90
8095;DHT22;4090;49.270;8.696;2023-04-24T13:00:17;15.00;99.90
8095;DHT22;4090;49.270;8.696;2023-04-24T13:02:58;15.00;99.90
8095;DHT22;4090;49.270;8.696;2023-04-24T13:05:42;15.00;99.90
8095;DHT22;4090;49.270;8.696;2023-04-24T13:08:24;15.10;99.90
8095;DHT22;4090;49.270;8.696;2023-04-24T13:11:06;15.10;99.90
8095;DHT22;4090;49.270;8.696;2023-04-24T13:13:47;15.10;99.90
8095;DHT22;4090;49.270;8.696;2023-04-24T13:16:29;15.10;99.90
8095;DHT22;4090;49.270;8.696;2023-04-24T13:19:11;15.10;99.90
8095;DHT22;4090;49.270;8.696;2023-04-24T13:21:54;15.20;99.90
8095;DHT22;4090;49.270;8.696;2023-04-24T13:24:37;15.20;99.90
8095;DHT22;4090;49.270;8.696;2023-04-24T13:27:20;15.30;99.90
8095;DHT22;4090;49.270;8.696;2023-04-24T13:30:02;15.30;99.90
8095;DHT22;4090;49.270;8.696;2023-04-24T13:32:44;15.40;99.90
8095;DHT22;4090;49.270;8.696;2023-04-24T13:35:26;15.50;99.90
8095;DHT22;4090;49.270;8.696;2023-04-24T13:38:09;15.90;99.90
8095;DHT22;4090;49.270;8.696;2023-04-24T13:40:51;16.00;99.90
8095;DHT22;4090;49.270;8.696;2023-04-24T13:43:32;15.90;99.90
8095;DHT22;4090;49.270;8.696;2023-04-24T13:46:14;16.00;99.90
8095;DHT22;4090;49.270;8.696;2023-04-24T13:48:56;16.30;99.90
8095;DHT22;4090;49.270;8.696;2023-04-24T13:51:38;16.40;99.90
8095;DHT22;4090;49.270;8.696;2023-04-24T13:54:21;16.70;99.90
8095;DHT22;4090;49.270;8.696;2023-04-24T13:57:06;16.70;99.90
8095;DHT22;4090;49.270;8.696;2023-04-24T13:59:47;16.80;99.90
8095;DHT22;4090;49.270;8.696;2023-04-24T14:02:29;16.80;99.60
8095;DHT22;4090;49.270;8.696;2023-04-24T14:05:12;16.80;99.30
8095;DHT22;4090;49.270;8.696;2023-04-24T14:07:54;16.70;99.50
8095;DHT22;4090;49.270;8.696;2023-04-24T14:10:37;16.70;99.30
8095;DHT22;4090;49.270;8.696;2023-04-24T14:13:19;16.70;99.20
8095;DHT22;4090;49.270;8.696;2023-04-24T14:16:01;16.80;99.00
8095;DHT22;4090;49.270;8.696;2023-04-24T14:18:43;16.60;99.30
8095;DHT22;4090;49.270;8.696;2023-04-24T14:21:24;16.60;99.00
8095;DHT22;4090;49.270;8.696;2023-04-24T14:24:06;16.50;99.90
8095;DHT22;4090;49.270;8.696;2023-04-24T14:26:49;16.50;99.90
8095;DHT22;4090;49.270;8.696;2023-04-24T14:29:31;16.60;99.90
8095;DHT22;4090;49.270;8.696;2023-04-24T14:32:13;16.50;99.60
8095;DHT22;4090;49.270;8.696;2023-04-24T14:34:56;16.50;99.90
8095;DHT22;4090;49.270;8.696;2023-04-24T14:37:37;16.60;99.10
8095;DHT22;4090;49.270;8.696;2023-04-24T14:40:21;16.50;98.40
8095;DHT22;4090;49.270;8.696;2023-04-24T14:43:04;16.60;98.60
8095;DHT22;4090;49.270;8.696;2023-04-24T14:45:47;16.50;98.80
8095;DHT22;4090;49.270;8.696;2023-04-24T14:48:28;16.40;98.70
8095;DHT22;4090;49.270;8.696;2023-04-24T14:51:10;16.50;98.40
8095;DHT22;4090;49.270;8.696;2023-04-24T14:53:52;16.50;98.50
8095;DHT22;4090;49.270;8.696;2023-04-24T14:56:34;16.50;98.50
8095;DHT22;4090;49.270;8.696;2023-04-24T14:59:17;16.50;97.70
8095;DHT22;4090;49.270;8.696;2023-04-24T15:01:59;16.40;98.00
8095;DHT22;4090;49.270;8.696;2023-04-24T15:04:40;16.40;98.40
8095;DHT22;4090;49.270;8.696;2023-04-24T15:07:22;16.50;99.10
8095;DHT22;4090;49.270;8.696;2023-04-24T15:10:04;16.50;99.90
8095;DHT22;4090;49.270;8.696;2023-04-24T15:12:46;16.40;99.90
8095;DHT22;4090;49.270;8.696;2023-04-24T15:15:29;16.50;99.90
8095;DHT22;4090;49.270;8.696;2023-04-24T15:18:11;16.60;99.90
8095;DHT22;4090;49.270;8.696;2023-04-24T15:20:53;16.50;99.90
8095;DHT22;4090;49.270;8.696;2023-04-24T15:23:34;16.40;99.90
8095;DHT22;4090;49.270;8.696;2023-04-24T15:26:16;16.40;99.90
8095;DHT22;4090;49.270;8.696;2023-04-24T15:28:58;16.50;99.90
8095;DHT22;4090;49.270;8.696;2023-04-24T15:31:42;16.50;99.90
8095;DHT22;4090;49.270;8.696;2023-04-24T15:34:23;16.60;99.90
8095;DHT22;4090;49.270;8.696;2023-04-24T15:37:05;16.60;99.90
8095;DHT22;4090;49.270;8.696;2023-04-24T15:39:47;16.60;99.90
8095;DHT22;4090;49.270;8.696;2023-04-24T15:42:29;16.30;99.90
8095;DHT22;4090;49.270;8.696;2023-04-24T15:45:10;16.30;99.90
8095;DHT22;4090;49.270;8.696;2023-04-24T15:47:54;16.10;99.90
8095;DHT22;4090;49.270;8.696;2023-04-24T15:50:36;16.00;99.90
8095;DHT22;4090;49.270;8.696;2023-04-24T15:53:18;15.90;99.90
8095;DHT22;4090;49.270;8.696;2023-04-24T15:56:01;15.90;99.90
8095;DHT22;4090;49.270;8.696;2023-04-24T15:58:43;16.00;99.90
8095;DHT22;4090;49.270;8.696;2023-04-24T16:01:25;16.10;99.90
8095;DHT22;4090;49.270;8.696;2023-04-24T16:04:08;16.10;99.90
8095;DHT22;4090;49.270;8.696;2023-04-24T16:06:49;16.20;99.90
8095;DHT22;4090;49.270;8.696;2023-04-24T16:09:32;16.10;99.90
8095;DHT22;4090;49.270;8.696;2023-04-24T16:12:14;16.10;99.90
8095;DHT22;4090;49.270;8.696;2023-04-24T16:14:55;16.10;99.90
8095;DHT22;4090;49.270;8.696;2023-04-24T16:17:37;16.10;99.90
8095;DHT22;4090;49.270;8.696;2023-04-24T16:20:20;16.10;99.90
8095;DHT22;4090;49.270;8.696;2023-04-24T16:23:02;16.10;99.90
8095;DHT22;4090;49.270;8.696;2023-04-24T16:25:44;16.10;99.90
8095;DHT22;4090;49.270;8.696;2023-04-24T16:28:25;16.20;99.90
8095;DHT22;4090;49.270;8.696;2023-04-24T16:31:07;16.20;99.90
8095;DHT22;4090;49.270;8.696;2023-04-24T16:33:49;16.20;99.90
8095;DHT22;4090;49.270;8.696;2023-04-24T16:36:32;16.30;99.90
8095;DHT22;4090;49.270;8.696;2023-04-24T16:39:14;16.10;99.90
8095;DHT22;4090;49.270;8.696;2023-04-24T16:41:56;16.20;99.90
8095;DHT22;4090;49.270;8.696;2023-04-24T16:44:38;16.20;99.90
8095;DHT22;4090;49.270;8.696;2023-04-24T16:47:20;16.10;99.90
8095;DHT22;4090;49.270;8.696;2023-04-24T16:50:01;16.20;99.90
8095;DHT22;4090;49.270;8.696;2023-04-24T16:52:45;16.10;99.90
8095;DHT22;4090;49.270;8.696;2023-04-24T16:55:27;16.20;99.90
8095;DHT22;4090;49.270;8.696;2023-04-24T16:58:08;16.20;99.90
8095;DHT22;4090;49.270;8.696;2023-04-24T17:00:50;16.10;99.90
8095;DHT22;4090;49.270;8.696;2023-04-24T17:03:32;16.20;99.90
8095;DHT22;4090;49.270;8.696;2023-04-24T17:06:14;16.10;99.90
8095;DHT22;4090;49.270;8.696;2023-04-24T17:08:57;16.00;99.90
8095;DHT22;4090;49.270;8.696;2023-04-24T17:11:39;16.00;99.90
8095;DHT22;4090;49.270;8.696;2023-04-24T17:14:21;16.10;99.90
8095;DHT22;4090;49.270;8.696;2023-04-24T17:17:05;16.00;99.90
8095;DHT22;4090;49.270;8.696;2023-04-24T17:19:47;16.00;99.90
8095;DHT22;4090;49.270;8.696;2023-04-24T17:22:30;15.80;99.90
8095;DHT22;4090;49.270;8.696;2023-04-24T17:25:13;15.80;99.90
8095;DHT22;4090;49.270;8.696;2023-04-24T17:27:55;15.80;99.90
8095;DHT22;4090;49.270;8.696;2023-04-24T17:30:37;15.70;99.90
8095;DHT22;4090;49.270;8.696;2023-04-24T17:33:18;15.60;99.90
8095;DHT22;4090;49.270;8.696;2023-04-24T17:36:00;15.50;99.90
8095;DHT22;4090;49.270;8.696;2023-04-24T17:38:42;15.20;99.90
8095;DHT22;4090;49.270;8.696;2023-04-24T17:41:25;15.10;99.90
8095;DHT22;4090;49.270;8.696;2023-04-24T17:44:07;14.90;99.90
8095;DHT22;4090;49.270;8.696;2023-04-24T17:46:49;15.00;99.90